Time;durP1;ratioP1;P1;durP2;ratioP2;P2;SDS_P1;SDS_P2;PMS_P1;PMS_P2;Temp;Humidity;BMP_temperature;BMP_pressure;BME280_temperature;BME280_humidity;BME280_pressure;Samples;Min_cycle;Max_cycle;Signal;HPM_P1;HPM_P2
2022/10/16 00:01:15;;;;;;;0.70;0.70;;;;;;;21.44;45.92;99696.91;4502324;31;35156;-74
2022/10/16 00:03:44;;;;;;;4.75;3.17;;;;;;;21.31;46.28;99689.56;4502301;31;34428;-75
2022/10/16 00:06:13;;;;;;;1.65;1.42;;;;;;;21.59;46.00;99688.22;4501052;31;33423;-74
2022/10/16 00:08:42;;;;;;;1.20;1.12;;;;;;;21.67;46.54;99678.09;4500984;31;34905;-74
2022/10/16 00:11:14;;;;;;;1.58;1.48;;;;;;;21.73;45.24;99682.22;4501983;31;35594;-73
2022/10/16 00:13:43;;;;;;;4.22;3.83;;;;;;;21.82;45.31;99675.59;4502175;31;34413;-76
2022/10/16 00:16:12;;;;;;;2.67;2.40;;;;;;;21.86;45.43;99677.12;4500992;31;33367;-76
2022/10/16 00:18:41;;;;;;;2.15;1.92;;;;;;;22.13;44.75;99686.28;4502174;31;33864;-74
2022/10/16 00:21:18;;;;;;;1.62;1.52;;;;;;;21.81;45.22;99680.00;4501597;31;35770;-74
2022/10/16 00:24:08;;;;;;;2.12;1.65;;;;;;;21.58;45.08;99686.50;4502054;31;35988;-75
2022/10/16 00:26:36;;;;;;;2.80;2.33;;;;;;;21.40;45.43;99682.94;4500978;31;34340;-73
2022/10/16 00:29:06;;;;;;;2.65;2.42;;;;;;;21.27;45.51;99689.81;4502152;31;33910;-74
2022/10/16 00:31:34;;;;;;;1.55;1.45;;;;;;;20.38;48.00;99693.06;4501828;31;35942;-75
2022/10/16 00:34:02;;;;;;;1.92;1.80;;;;;;;19.79;49.27;99696.56;4501963;31;35399;-73
2022/10/16 00:36:31;;;;;;;3.87;1.12;;;;;;;19.56;49.71;99702.78;4500842;31;33397;-75
2022/10/16 00:39:00;;;;;;;7.12;2.72;;;;;;;19.21;50.61;99702.47;4502150;31;34771;-73
2022/10/16 00:41:29;;;;;;;0.77;0.77;;;;;;;18.05;54.30;99706.78;4501999;31;35031;-73
2022/10/16 00:43:59;;;;;;;1.30;1.17;;;;;;;17.72;55.11;99700.91;4502196;31;35309;-71
2022/10/16 00:46:35;;;;;;;1.42;1.23;;;;;;;17.07;57.15;99703.03;4500896;31;32133;-70
2022/10/16 00:49:13;;;;;;;2.42;1.50;;;;;;;17.55;56.09;99706.75;4500788;31;33520;-72
2022/10/16 00:51:46;;;;;;;0.68;0.68;;;;;;;17.46;55.85;99702.63;4500672;31;35152;-72
2022/10/16 00:54:28;;;;;;;2.67;1.52;;;;;;;17.46;55.80;99707.91;4501092;31;35295;-70
2022/10/16 00:56:59;;;;;;;1.27;1.20;;;;;;;16.53;58.23;99714.28;4500781;31;33036;-71
2022/10/16 00:59:31;;;;;;;1.70;1.60;;;;;;;15.82;60.39;99718.84;4500757;31;34906;-71
2022/10/16 01:01:59;;;;;;;1.75;1.65;;;;;;;15.78;60.63;99710.19;4501949;31;35152;-71
2022/10/16 01:04:33;;;;;;;1.75;1.10;;;;;;;15.97;59.89;99721.09;4501045;31;35267;-70
2022/10/16 01:07:07;;;;;;;0.75;0.75;;;;;;;14.87;63.30;99719.34;4501874;31;33536;-69
2022/10/16 01:09:49;;;;;;;0.50;0.50;;;;;;;14.33;65.38;99730.91;4501845;31;34086;-69
2022/10/16 01:12:26;;;;;;;4.78;2.60;;;;;;;13.82;67.53;99730.12;4501745;31;34994;-69
2022/10/16 01:14:59;;;;;;;1.48;1.37;;;;;;;14.04;66.52;99733.22;4501870;31;34427;-69
2022/10/16 01:17:39;;;;;;;0.88;0.88;;;;;;;14.18;65.72;99732.94;4501753;31;33430;-69
2022/10/16 01:20:12;;;;;;;0.90;0.90;;;;;;;14.37;64.71;99741.31;4501878;31;33853;-69
2022/10/16 01:22:58;;;;;;;1.27;0.93;;;;;;;14.60;63.89;99737.41;4500622;31;35045;-69
2022/10/16 01:25:52;;;;;;;0.82;0.82;;;;;;;14.24;65.01;99734.59;4500546;31;35389;-69
2022/10/16 01:28:22;;;;;;;0.77;0.77;;;;;;;13.96;65.90;99734.25;4501415;31;33589;-69
2022/10/16 01:30:54;;;;;;;1.75;1.25;;;;;;;13.91;65.91;99743.97;4500091;31;34104;-69
2022/10/16 01:33:26;;;;;;;0.98;0.98;;;;;;;13.67;66.68;99743.47;4500479;31;35056;-68
2022/10/16 01:36:00;;;;;;;0.50;0.50;;;;;;;13.63;66.62;99737.44;4500445;31;34555;-69
2022/10/16 01:38:35;;;;;;;3.47;2.05;;;;;;;13.15;68.42;99739.06;4500465;31;33942;-69
2022/10/16 01:41:12;;;;;;;1.12;1.02;;;;;;;13.49;67.15;99744.66;4500469;31;34043;-69
2022/10/16 01:43:49;;;;;;;0.70;0.70;;;;;;;13.15;68.54;99744.28;4501514;31;35130;-69
2022/10/16 01:46:19;;;;;;;3.62;1.37;;;;;;;12.83;69.44;99743.84;4500387;31;34414;-69
2022/10/16 01:48:48;;;;;;;1.15;1.10;;;;;;;12.96;68.96;99744.53;4500239;31;34094;-69
2022/10/16 01:51:17;;;;;;;1.00;1.00;;;;;;;12.87;69.06;99739.44;4501369;31;34878;-69
2022/10/16 01:53:54;;;;;;;1.05;0.90;;;;;;;12.35;70.33;99745.31;4500209;31;35169;-69
2022/10/16 01:56:22;;;;;;;;;;;;;;;12.50;70.27;99743.38;4500855;31;34381;-69
2022/10/16 01:58:54;;;;;;;0.93;0.93;;;;;;;11.65;74.09;99747.75;4500229;31;33414;-69
2022/10/16 02:01:23;;;;;;;1.55;1.12;;;;;;;11.16;76.44;99747.22;4500222;31;34064;-69
2022/10/16 02:03:53;;;;;;;1.70;1.35;;;;;;;10.88;77.20;99753.47;4501145;31;34905;-69
2022/10/16 02:06:22;;;;;;;0.75;0.73;;;;;;;10.98;77.14;99752.56;4499970;31;34590;-69
2022/10/16 02:08:50;;;;;;;1.45;0.80;;;;;;;10.80;77.73;99761.34;4501225;31;33595;-69
2022/10/16 02:11:18;;;;;;;0.88;0.88;;;;;;;11.44;75.43;99757.44;4501123;31;33983;-69
2022/10/16 02:13:54;;;;;;;2.30;1.45;;;;;;;10.76;78.03;99773.47;4501118;31;35879;-69
2022/10/16 02:16:33;;;;;;;0.77;0.77;;;;;;;10.73;78.50;99781.34;4500019;31;34599;-68
2022/10/16 02:19:02;;;;;;;0.88;0.88;;;;;;;11.16;76.51;99775.88;4501157;31;33639;-69
2022/10/16 02:22:03;;;;;;;1.17;1.02;;;;;;;12.04;73.18;99772.63;4501101;31;33107;-69
2022/10/16 02:24:52;;;;;;;1.10;1.10;;;;;;;12.25;72.35;99766.31;4500733;31;35893;-69
2022/10/16 02:27:45;;;;;;;0.70;0.70;;;;;;;12.18;72.12;99769.88;4499493;31;35265;-69
2022/10/16 02:30:21;;;;;;;0.60;0.60;;;;;;;11.55;75.18;99763.44;4499765;31;33724;-69
2022/10/16 02:32:49;;;;;;;;;;;;;;;11.89;73.94;99773.56;4501159;31;33921;-69
2022/10/16 02:35:19;;;;;;;2.03;1.45;;;;;;;11.80;74.14;99773.66;4500825;31;35369;-69
2022/10/16 02:37:48;;;;;;;1.05;1.00;;;;;;;11.24;76.68;99773.25;4499586;31;35154;-69
2022/10/16 02:40:17;;;;;;;2.70;1.52;;;;;;;11.46;75.59;99781.78;4499734;31;34328;-69
2022/10/16 02:42:52;;;;;;;0.50;0.50;;;;;;;11.43;75.86;99784.41;4501050;31;33937;-69
2022/10/16 02:45:21;;;;;;;0.55;0.55;;;;;;;11.32;75.93;99786.22;4502919;31;35857;-69
2022/10/16 02:47:49;;;;;;;0.50;0.50;;;;;;;11.25;75.70;99781.94;4502704;31;34422;-69
2022/10/16 02:50:17;;;;;;;0.50;0.50;;;;;;;10.97;78.10;99789.91;4502758;31;33484;-69
2022/10/16 02:52:45;;;;;;;1.08;0.98;;;;;;;11.31;76.10;99784.47;4502547;31;33971;-69
2022/10/16 02:55:13;;;;;;;1.08;1.08;;;;;;;11.45;74.65;99780.03;4502760;31;34995;-69
2022/10/16 02:57:41;;;;;;;0.88;0.88;;;;;;;11.60;74.34;99781.69;4502762;31;34553;-69
2022/10/16 03:00:11;;;;;;;0.90;0.90;;;;;;;11.36;74.82;99786.22;4502682;31;33516;-69
2022/10/16 03:02:39;;;;;;;1.70;1.10;;;;;;;11.74;73.56;99789.38;4502870;31;33912;-69
2022/10/16 03:05:08;;;;;;;1.17;1.08;;;;;;;11.26;74.62;99786.25;4502673;31;35712;-69
2022/10/16 03:07:36;;;;;;;0.65;0.65;;;;;;;11.11;75.55;99792.44;4502783;31;34537;-69
2022/10/16 03:10:05;;;;;;;0.50;0.50;;;;;;;11.50;74.82;99796.50;4502679;31;33457;-69
2022/10/16 03:12:33;;;;;;;1.08;0.98;;;;;;;11.60;74.17;99788.63;4502535;31;33822;-69
2022/10/16 03:15:01;;;;;;;0.52;0.52;;;;;;;11.40;75.47;99789.66;4502557;31;35111;-69
2022/10/16 03:17:29;;;;;;;0.60;0.60;;;;;;;11.09;76.74;99795.03;4502441;31;34526;-69
2022/10/16 03:19:56;;;;;;;0.70;0.70;;;;;;;11.23;74.90;99799.31;4502735;31;33645;-69
2022/10/16 03:22:25;;;;;;;2.22;2.05;;;;;;;11.39;74.14;99803.56;4502564;31;33894;-69
2022/10/16 03:24:52;;;;;;;0.95;0.95;;;;;;;11.35;74.68;99802.72;4502482;31;35859;-69
2022/10/16 03:27:20;;;;;;;1.90;1.77;;;;;;;11.26;73.81;99797.56;4502263;31;34348;-70
2022/10/16 03:29:49;;;;;;;0.82;0.82;;;;;;;11.37;73.58;99800.09;4502593;31;34342;-69
2022/10/16 03:32:16;;;;;;;1.02;1.02;;;;;;;11.04;75.84;99812.44;4502340;31;34660;-69
2022/10/16 03:34:44;;;;;;;0.60;0.60;;;;;;;11.04;75.69;99812.44;4502363;31;35113;-69
2022/10/16 03:37:12;;;;;;;0.93;0.93;;;;;;;11.12;74.92;99810.66;4502763;31;35089;-70
2022/10/16 03:39:40;;;;;;;6.60;2.47;;;;;;;11.14;74.82;99814.12;4502737;31;34328;-69
2022/10/16 03:42:08;;;;;;;1.10;0.95;;;;;;;11.20;73.74;99818.44;4502429;31;34684;-70
2022/10/16 03:44:36;;;;;;;0.60;0.60;;;;;;;11.09;74.29;99821.09;4501084;31;33468;-69
2022/10/16 03:47:04;;;;;;;1.05;1.05;;;;;;;11.12;73.74;99818.50;4502588;31;35098;-70
2022/10/16 03:49:32;;;;;;;3.40;1.58;;;;;;;10.46;77.26;99823.09;4502476;31;33537;-70
2022/10/16 03:52:00;;;;;;;1.05;0.93;;;;;;;10.29;77.92;99821.34;4502237;31;34002;-69
2022/10/16 03:54:28;;;;;;;1.65;1.15;;;;;;;10.88;75.67;99831.63;4502222;31;35997;-69
2022/10/16 03:56:55;;;;;;;1.40;1.30;;;;;;;10.89;75.11;99828.13;4502212;31;34413;-69
2022/10/16 03:59:24;;;;;;;1.67;1.58;;;;;;;10.73;75.25;99829.94;4502318;31;33511;-70
2022/10/16 04:01:51;;;;;;;0.88;0.88;;;;;;;10.68;74.91;99827.38;4502277;31;34710;-69
2022/10/16 04:04:19;;;;;;;1.73;1.62;;;;;;;9.98;77.49;99830.94;4502380;31;35906;-69
2022/10/16 04:06:47;;;;;;;1.02;0.93;;;;;;;10.42;77.71;99830.03;4502109;31;34516;-69
2022/10/16 04:09:15;;;;;;;0.80;0.80;;;;;;;10.62;76.14;99827.38;4502322;31;33321;-69
2022/10/16 04:11:43;;;;;;;0.77;0.77;;;;;;;10.54;75.67;99837.81;4502091;31;33971;-69
2022/10/16 04:14:11;;;;;;;0.70;0.70;;;;;;;10.47;75.43;99840.44;4502182;31;35079;-69
2022/10/16 04:16:39;;;;;;;1.52;1.42;;;;;;;10.39;75.60;99843.94;4502191;31;34542;-69
2022/10/16 04:19:07;;;;;;;1.08;1.08;;;;;;;10.32;75.44;99836.97;4502083;31;33643;-69
2022/10/16 04:21:35;;;;;;;0.90;0.90;;;;;;;9.97;76.59;99832.69;4502227;31;33933;-69
2022/10/16 04:24:03;;;;;;;1.02;1.02;;;;;;;9.93;77.88;99830.06;4502309;31;35121;-69
2022/10/16 04:26:31;;;;;;;0.88;0.88;;;;;;;9.73;79.99;99833.53;4501979;31;34561;-70
2022/10/16 04:28:59;;;;;;;1.50;1.40;;;;;;;9.94;79.76;99840.47;4502217;31;34138;-69
2022/10/16 04:31:27;;;;;;;1.27;1.08;;;;;;;10.25;77.35;99835.22;4502245;31;33976;-70
2022/10/16 04:33:55;;;;;;;1.35;1.27;;;;;;;10.05;78.02;99840.47;4502051;31;34903;-69
2022/10/16 04:36:23;;;;;;;1.23;1.00;;;;;;;10.49;75.48;99833.50;4501973;31;34445;-69
2022/10/16 04:38:56;;;;;;;0.80;0.80;;;;;;;10.14;76.79;99842.19;4502079;31;34244;-69
2022/10/16 04:41:24;;;;;;;2.50;1.98;;;;;;;10.23;76.70;99842.19;4502060;31;33959;-69
2022/10/16 04:43:51;;;;;;;1.55;1.45;;;;;;;10.25;76.84;99843.03;4502007;31;35947;-69
2022/10/16 04:46:20;;;;;;;0.60;0.60;;;;;;;10.10;77.28;99840.47;4501914;31;35356;-69
2022/10/16 04:48:48;;;;;;;0.85;0.85;;;;;;;9.92;78.60;99847.41;4501883;31;33458;-71
2022/10/16 04:51:16;;;;;;;0.75;0.75;;;;;;;10.19;77.57;99845.66;4501112;31;33515;-69
2022/10/16 04:53:44;;;;;;;1.42;1.33;;;;;;;10.21;76.51;99846.53;4501760;31;35928;-69
2022/10/16 04:56:12;;;;;;;1.12;1.02;;;;;;;10.07;76.50;99846.53;4502191;31;35191;-69
2022/10/16 04:58:39;;;;;;;2.83;1.75;;;;;;;10.09;76.28;99854.34;4501958;31;33573;-69
2022/10/16 05:01:08;;;;;;;0.80;0.80;;;;;;;9.75;77.73;99854.34;4501838;31;34024;-69
2022/10/16 05:03:35;;;;;;;0.57;0.57;;;;;;;9.21;81.47;99852.50;4501809;31;35174;-69
2022/10/16 05:06:05;;;;;;;1.37;1.27;;;;;;;10.00;78.40;99848.25;4501155;31;34579;-69
2022/10/16 05:08:33;;;;;;;3.33;2.05;;;;;;;10.16;76.61;99850.84;4501903;31;32524;-69
2022/10/16 05:11:01;;;;;;;1.45;1.35;;;;;;;9.78;78.72;99850.00;4501783;31;34752;-69
2022/10/16 05:13:29;;;;;;;2.12;2.03;;;;;;;9.94;79.36;99856.09;4501993;31;35943;-69
2022/10/16 05:15:57;;;;;;;0.50;0.50;;;;;;;10.11;77.50;99861.28;4502090;31;35161;-69
2022/10/16 05:18:25;;;;;;;1.65;1.55;;;;;;;9.97;78.01;99861.28;4501754;31;33516;-69
2022/10/16 05:20:53;;;;;;;0.88;0.88;;;;;;;9.80;78.29;99861.28;4501660;31;34061;-71
2022/10/16 05:23:21;;;;;;;0.50;0.50;;;;;;;9.59;80.09;99872.50;4501688;31;35991;-70
2022/10/16 05:25:54;;;;;;;1.33;1.23;;;;;;;10.15;77.89;99865.63;4501721;31;34379;-69
2022/10/16 05:28:22;;;;;;;1.45;0.80;;;;;;;10.22;76.90;99866.50;4501535;31;33562;-70
2022/10/16 05:30:50;;;;;;;0.75;0.75;;;;;;;10.01;77.57;99864.75;4500529;31;34710;-69
2022/10/16 05:33:20;;;;;;;1.85;1.25;;;;;;;10.18;76.86;99863.03;4500511;31;35897;-69
2022/10/16 05:35:49;;;;;;;0.40;0.40;;;;;;;9.95;77.71;99865.59;4501713;31;34150;-69
2022/10/16 05:38:18;;;;;;;1.45;1.35;;;;;;;9.57;81.25;99876.00;4501903;31;33601;-69
2022/10/16 05:40:52;;;;;;;1.98;1.87;;;;;;;9.68;81.75;99875.12;4501602;31;33804;-69
2022/10/16 05:43:21;;;;;;;0.60;0.60;;;;;;;10.42;78.90;99875.16;4501606;31;35085;-70
2022/10/16 05:45:59;;;;;;;0.62;0.62;;;;;;;10.55;78.72;99875.12;4501452;31;34476;-69
2022/10/16 05:48:28;;;;;;;6.03;1.15;;;;;;;10.28;79.82;99881.22;4501526;31;33611;-70
2022/10/16 05:51:04;;;;;;;0.98;0.98;;;;;;;10.29;80.38;99888.16;4501454;31;33990;-69
2022/10/16 05:53:33;;;;;;;;;;;;;;;10.82;79.23;99890.69;4501919;31;36043;-69
2022/10/16 05:56:01;;;;;;;4.12;1.60;;;;;;;11.02;78.47;99887.16;4501659;31;35481;-69
2022/10/16 05:58:31;;;;;;;3.60;1.30;;;;;;;11.29;77.26;99885.31;4501653;31;34283;-69
2022/10/16 06:01:06;;;;;;;2.05;1.95;;;;;;;11.26;78.81;99891.41;4493427;31;33291;-69
2022/10/16 06:03:35;;;;;;;0.30;0.30;;;;;;;12.39;76.70;99894.13;4489794;31;35076;-68
2022/10/16 06:06:14;;;;;;;1.10;0.95;;;;;;;13.95;69.66;99894.84;4500039;31;34648;-70
2022/10/16 06:08:45;;;;;;;0.95;0.95;;;;;;;15.31;64.64;99902.00;4500711;31;33247;-70
2022/10/16 06:11:16;;;;;;;7.68;2.47;;;;;;;15.22;63.56;99915.31;4498457;31;33138;-70
2022/10/16 06:13:45;;;;;;;1.40;1.30;;;;;;;15.27;63.56;99913.44;4490413;31;35767;-71
2022/10/16 06:16:13;;;;;;;0.70;0.70;;;;;;;15.52;63.86;99905.91;4495915;31;34303;-70
2022/10/16 06:18:41;;;;;;;1.85;1.20;;;;;;;14.97;65.19;99910.56;4501107;31;34126;-69
2022/10/16 06:21:13;;;;;;;1.77;1.67;;;;;;;15.01;65.37;99910.50;4502404;31;33901;-68
2022/10/16 06:23:41;;;;;;;1.27;1.02;;;;;;;15.08;65.11;99922.59;4496200;31;35924;-69
2022/10/16 06:26:11;;;;;;;1.90;1.58;;;;;;;14.41;65.36;99925.53;4494552;31;34440;-69
2022/10/16 06:28:39;;;;;;;1.60;1.50;;;;;;;14.12;68.30;99934.75;4502162;31;33544;-68
2022/10/16 06:31:08;;;;;;;0.82;0.82;;;;;;;14.43;66.00;99934.22;4489250;31;33944;-68
2022/10/16 06:33:37;;;;;;;1.85;1.23;;;;;;;14.69;64.30;99931.19;4501999;31;35714;-69
2022/10/16 06:36:08;;;;;;;1.52;1.00;;;;;;;14.17;68.12;99935.53;4501821;31;34522;-70
2022/10/16 06:38:37;;;;;;;1.50;1.15;;;;;;;14.53;67.02;99934.94;4501375;31;33633;-69
2022/10/16 06:41:06;;;;;;;0.45;0.45;;;;;;;15.07;63.10;99941.84;4501229;31;34054;-68
2022/10/16 06:43:37;;;;;;;1.08;1.08;;;;;;;14.89;63.69;99936.03;4485621;31;34067;-69
2022/10/16 06:46:10;;;;;;;0.93;0.75;;;;;;;14.73;64.36;99950.34;4495875;31;34564;-68
2022/10/16 06:48:38;;;;;;;4.00;2.30;;;;;;;14.86;62.14;99951.84;4492900;31;33216;-68
2022/10/16 06:51:13;;;;;;;0.93;0.93;;;;;;;15.27;60.66;99958.06;4499334;31;34471;-69
2022/10/16 06:53:44;;;;;;;0.68;0.68;;;;;;;15.23;61.03;99969.50;4501990;31;35139;-67
2022/10/16 06:56:31;;;;;;;1.23;1.12;;;;;;;15.52;59.07;99975.94;4491780;31;35223;-68
2022/10/16 06:58:59;;;;;;;1.27;1.23;;;;;;;15.19;61.79;99965.19;4499478;31;33652;-68
2022/10/16 07:01:28;;;;;;;1.48;1.37;;;;;;;15.08;61.94;99964.56;4497333;31;33986;-69
2022/10/16 07:03:57;;;;;;;0.43;0.43;;;;;;;15.08;62.81;99972.44;4501124;31;35911;-69
2022/10/16 07:06:25;;;;;;;1.35;1.25;;;;;;;15.08;61.34;99986.41;4491071;31;34509;-69
2022/10/16 07:08:54;;;;;;;0.75;0.75;;;;;;;15.10;60.63;99984.59;4488512;31;33445;-68
2022/10/16 07:11:23;;;;;;;2.85;1.85;;;;;;;15.91;57.05;99989.97;4489418;31;34101;-69
2022/10/16 07:13:51;;;;;;;2.12;1.98;;;;;;;15.60;57.90;99984.50;4496441;31;35956;-69
2022/10/16 07:16:26;;;;;;;2.35;2.15;;;;;;;15.63;58.69;99984.44;4494027;31;35130;-66
2022/10/16 07:18:59;;;;;;;2.17;2.05;;;;;;;16.10;58.58;99985.19;4500175;31;33678;-65
2022/10/16 07:21:31;;;;;;;1.05;1.05;;;;;;;16.21;58.10;99986.69;4495563;31;34798;-66
2022/10/16 07:24:00;;;;;;;3.50;3.15;;;;;;;16.49;56.31;99986.91;4493905;31;35204;-69
2022/10/16 07:26:30;;;;;;;3.25;1.77;;;;;;;16.57;57.70;99989.31;4486441;31;35155;-67
2022/10/16 07:28:58;;;;;;;2.10;0.88;;;;;;;16.38;58.89;99989.78;4500283;31;33666;-67
2022/10/16 07:31:27;;;;;;;1.20;1.15;;;;;;;16.39;56.48;99990.66;4500061;31;34630;-67
2022/10/16 07:33:58;;;;;;;2.58;2.33;;;;;;;16.84;55.81;99982.53;4501580;31;35765;-68
2022/10/16 07:36:28;;;;;;;2.85;1.67;;;;;;;16.77;55.15;99979.19;4500697;31;33990;-67
2022/10/16 07:38:57;;;;;;;1.60;1.00;;;;;;;16.58;56.10;99991.06;4499524;31;33425;-66
2022/10/16 07:41:27;;;;;;;0.55;0.55;;;;;;;17.17;53.60;99986.03;4501458;31;33929;-69
2022/10/16 07:43:59;;;;;;;2.05;1.35;;;;;;;16.91;57.06;99986.75;4496060;31;35003;-70
2022/10/16 07:46:28;;;;;;;0.57;0.57;;;;;;;17.69;52.99;100003.91;4499580;31;34537;-67
2022/10/16 07:48:56;;;;;;;1.45;1.35;;;;;;;17.91;51.53;99997.12;4502315;31;34312;-68
2022/10/16 07:51:25;;;;;;;10.55;3.45;;;;;;;17.58;53.00;100006.84;4501230;31;34283;-68
2022/10/16 07:53:54;;;;;;;0.95;0.93;;;;;;;18.02;50.88;100006.44;4501221;31;33426;-68
2022/10/16 07:56:22;;;;;;;0.93;0.93;;;;;;;17.69;51.82;100015.28;4502208;31;34541;-70
2022/10/16 07:58:50;;;;;;;2.03;1.65;;;;;;;18.02;53.76;100019.63;4502231;31;33527;-69
2022/10/16 08:01:19;;;;;;;2.47;1.23;;;;;;;18.79;50.31;100020.66;4502242;31;34879;-68
2022/10/16 08:03:50;;;;;;;0.88;0.85;;;;;;;18.67;50.59;100023.69;4493542;31;34997;-70
2022/10/16 08:06:19;;;;;;;0.85;0.85;;;;;;;18.90;49.22;100029.12;4489199;31;33601;-71
2022/10/16 08:08:54;;;;;;;1.98;1.58;;;;;;;19.28;49.47;100029.56;4489282;31;33324;-69
2022/10/16 08:11:23;;;;;;;0.77;0.77;;;;;;;19.76;46.90;100037.56;4502760;31;34903;-72
2022/10/16 08:13:51;;;;;;;2.58;2.33;;;;;;;19.63;49.20;100029.19;4493280;31;35254;-70
2022/10/16 08:16:20;;;;;;;1.15;1.15;;;;;;;19.77;48.99;100042.78;4492670;31;34378;-70
2022/10/16 08:18:48;;;;;;;3.67;2.97;;;;;;;20.35;47.52;100044.13;4497235;31;33706;-71
2022/10/16 08:21:17;;;;;;;2.83;2.35;;;;;;;20.26;47.14;100040.91;4497469;31;34086;-72
2022/10/16 08:23:49;;;;;;;2.17;1.55;;;;;;;20.55;47.23;100046.81;4496995;31;35661;-70
2022/10/16 08:26:23;;;;;;;3.03;2.83;;;;;;;21.16;43.94;100039.88;4502734;31;34515;-69
2022/10/16 08:28:52;;;;;;;1.23;0.98;;;;;;;21.21;43.97;100041.44;4490226;31;33583;-69
2022/10/16 08:31:20;;;;;;;2.90;1.70;;;;;;;21.43;43.41;100047.56;4495316;31;34564;-71
2022/10/16 08:33:48;;;;;;;1.27;1.15;;;;;;;21.51;45.49;100050.75;4495969;31;35980;-69
2022/10/16 08:36:16;;;;;;;0.93;0.90;;;;;;;21.92;42.33;100050.69;4501113;31;34320;-70
2022/10/16 08:38:47;;;;;;;1.02;1.02;;;;;;;21.71;42.54;100044.56;4501561;31;33367;-70
2022/10/16 08:41:27;;;;;;;3.65;2.78;;;;;;;21.49;45.49;100050.81;4501279;31;34753;-70
2022/10/16 08:44:26;;;;;;;2.47;0.98;;;;;;;21.40;43.93;100045.91;4503170;31;34864;-70
2022/10/16 08:47:36;;;;;;;1.83;1.30;;;;;;;21.93;43.33;100055.88;4489103;31;35351;-68
2022/10/16 08:50:13;;;;;;;2.85;1.95;;;;;;;22.04;41.28;100052.78;4477517;31;33515;-68
2022/10/16 08:52:43;;;;;;;1.85;1.52;;;;;;;21.94;41.49;100067.37;4484745;31;33351;-67
2022/10/16 08:55:58;;;;;;;3.35;3.00;;;;;;;22.38;41.00;100061.81;4501404;31;35123;-70
2022/10/16 08:58:28;;;;;;;2.12;1.55;;;;;;;22.53;41.30;100061.03;4436654;32;34019;-69
2022/10/16 09:01:00;;;;;;;4.03;2.85;;;;;;;22.81;40.83;100070.31;4424988;32;33515;-72
2022/10/16 09:03:43;;;;;;;20.52;12.68;;;;;;;22.98;38.94;100072.13;4457305;31;34581;-70
2022/10/16 09:06:43;;;;;;;2.05;1.70;;;;;;;23.67;39.02;100073.03;4497106;31;35146;-71
2022/10/16 09:09:20;;;;;;;2.60;1.95;;;;;;;24.14;39.04;100071.41;4495779;31;34464;-71
2022/10/16 09:12:15;;;;;;;1.55;1.08;;;;;;;24.47;37.68;100070.47;4490727;31;34333;-72
2022/10/16 09:15:01;;;;;;;1.55;1.45;;;;;;;24.44;37.51;100076.81;4470432;31;33972;-71
2022/10/16 09:17:32;;;;;;;4.45;1.77;;;;;;;24.50;37.83;100083.63;4492834;31;35755;-75
2022/10/16 09:20:22;;;;;;;1.65;1.50;;;;;;;24.90;36.01;100084.00;4496077;31;35256;-70
2022/10/16 09:23:16;;;;;;;3.58;1.85;;;;;;;25.34;35.13;100077.84;4477995;31;337159;-70
2022/10/16 09:25:47;;;;;;;2.40;1.83;;;;;;;25.17;35.97;100076.19;4501474;31;34027;-69
2022/10/16 09:28:17;;;;;;;2.42;1.27;;;;;;;25.79;35.50;100067.16;4488695;31;35071;-70
2022/10/16 09:30:48;;;;;;;1.60;1.50;;;;;;;25.90;33.44;100078.84;4484236;31;34166;-68
2022/10/16 09:33:19;;;;;;;4.60;1.60;;;;;;;25.85;34.03;100080.94;4491066;31;33590;-69
2022/10/16 09:35:50;;;;;;;4.68;1.95;;;;;;;26.01;34.77;100077.34;4500966;31;34875;-70
2022/10/16 09:38:25;;;;;;;0.93;0.93;;;;;;;25.89;34.47;100073.63;4496281;31;35184;-72
2022/10/16 09:40:55;;;;;;;1.23;1.12;;;;;;;25.59;34.07;100079.03;4488779;31;34508;-71
2022/10/16 09:43:58;;;;;;;4.18;3.67;;;;;;;24.87;36.17;100084.19;4500814;31;33389;-72
2022/10/16 09:46:33;;;;;;;2.45;2.25;;;;;;;25.27;37.95;100087.19;4487709;31;34008;-72
2022/10/16 09:49:05;;;;;;;5.85;2.10;;;;;;;26.34;33.09;100089.50;4489507;31;35850;-69
2022/10/16 09:51:35;;;;;;;1.58;1.48;;;;;;;26.44;33.50;100093.31;4493084;31;34666;-70
2022/10/16 09:54:09;;;;;;;2.05;1.85;;;;;;;26.49;33.06;100088.53;4487083;31;32275;-70
2022/10/16 09:56:41;;;;;;;5.05;1.90;;;;;;;26.61;33.01;100092.19;4486666;31;34052;-68
2022/10/16 09:59:17;;;;;;;3.47;2.08;;;;;;;26.24;33.90;100095.44;4495592;31;34569;-70
2022/10/16 10:01:51;;;;;;;1.40;1.30;;;;;;;25.97;33.99;100092.69;4493650;31;34438;-75
2022/10/16 10:04:22;;;;;;;1.95;1.70;;;;;;;25.60;36.34;100094.09;4500777;31;33653;-71
2022/10/16 10:06:57;;;;;;;1.05;0.98;;;;;;;26.27;34.03;100097.91;4487387;31;33133;-69
2022/10/16 10:09:27;;;;;;;0.75;0.75;;;;;;;26.35;32.98;100091.19;4493466;31;36146;-71
2022/10/16 10:12:02;;;;;;;0.93;0.93;;;;;;;25.62;35.69;100084.19;4494290;31;34206;-71
2022/10/16 10:14:39;;;;;;;2.15;1.42;;;;;;;25.54;35.72;100080.19;4500318;31;33288;-69
2022/10/16 10:17:11;;;;;;;1.83;1.60;;;;;;;26.24;36.07;100078.53;4487153;31;34229;-71
2022/10/16 10:19:51;;;;;;;1.10;1.10;;;;;;;26.04;34.29;100071.81;4485194;32;36282;-77
2022/10/16 10:22:42;;;;;;;2.42;2.22;;;;;;;26.36;34.88;100068.91;4495728;31;35306;-77
2022/10/16 10:25:10;;;;;;;1.48;1.30;;;;;;;26.42;34.66;100072.03;4500082;31;34221;-78
2022/10/16 10:27:47;;;;;;;1.52;1.42;;;;;;;25.87;34.57;100073.72;4500397;31;34029;-71
2022/10/16 10:30:42;;;;;;;2.33;1.62;;;;;;;26.23;33.70;100068.84;4493614;31;35967;-71
2022/10/16 10:33:24;;;;;;;1.08;1.05;;;;;;;25.47;37.81;100062.84;4492625;31;34528;-72
2022/10/16 10:35:55;;;;;;;0.50;0.50;;;;;;;26.00;34.40;100063.16;4488240;31;33509;-73
2022/10/16 10:38:35;;;;;;;7.57;1.98;;;;;;;25.57;34.48;100070.28;4500788;31;34094;-72
2022/10/16 10:41:13;;;;;;;0.98;0.75;;;;;;;25.02;36.36;100069.09;4499542;31;34576;-72
2022/10/16 10:43:47;;;;;;;1.08;0.98;;;;;;;25.48;36.06;100069.03;4499619;31;34555;-72
2022/10/16 10:46:36;;;;;;;1.55;0.90;;;;;;;25.92;37.06;100076.09;4500827;31;33490;-72
2022/10/16 10:49:20;;;;;;;0.60;0.60;;;;;;;25.47;34.61;100065.50;4500824;31;33832;-72
2022/10/16 10:51:53;;;;;;;1.62;1.48;;;;;;;25.16;38.00;100069.97;4500590;31;35151;-72
2022/10/16 10:54:49;;;;;;;1.35;1.02;;;;;;;25.68;37.28;100068.66;4499457;31;35201;-72
2022/10/16 10:57:41;;;;;;;0.60;0.60;;;;;;;25.73;34.94;100068.38;4499629;31;34396;-72
2022/10/16 11:00:41;;;;;;;0.30;0.30;;;;;;;25.84;36.28;100071.25;4500505;31;33590;-72
2022/10/16 11:03:34;;;;;;;1.70;1.60;;;;;;;26.04;33.86;100072.66;4460842;31;35669;-72
2022/10/16 11:06:26;;;;;;;1.33;1.23;;;;;;;25.63;34.90;100072.56;4502696;31;34416;-73
2022/10/16 11:09:30;;;;;;;1.25;1.17;;;;;;;26.33;33.72;100064.63;4502750;31;34276;-73
2022/10/16 11:12:10;;;;;;;0.90;0.85;;;;;;;26.80;32.57;100059.81;4501498;31;33412;-73
2022/10/16 11:14:44;;;;;;;3.03;2.42;;;;;;;26.85;35.10;100063.03;4502558;31;35772;-73
2022/10/16 11:17:18;;;;;;;1.37;1.17;;;;;;;26.33;32.86;100053.94;4502637;31;34337;-74
2022/10/16 11:19:51;;;;;;;0.85;0.85;;;;;;;26.38;33.38;100054.47;4501820;31;34211;-73
2022/10/16 11:22:38;;;;;;;1.10;1.00;;;;;;;26.71;34.01;100055.06;4501676;31;34857;-73
2022/10/16 11:25:21;;;;;;;1.73;1.62;;;;;;;26.76;35.17;100052.97;4502563;31;35092;-73
2022/10/16 11:28:10;;;;;;;0.88;0.88;;;;;;;27.32;31.90;100050.94;4502404;31;35199;-73
2022/10/16 11:30:44;;;;;;;0.52;0.35;;;;;;;27.31;32.38;100049.22;4502791;31;33607;-74
2022/10/16 11:33:42;;;;;;;2.17;1.48;;;;;;;27.36;31.54;100047.09;4502613;31;34666;-74
2022/10/16 11:36:25;;;;;;;0.30;0.30;;;;;;;27.48;33.74;100047.19;4495663;31;34670;-74
2022/10/16 11:39:18;;;;;;;2.45;1.52;;;;;;;26.55;32.50;100053.38;4502491;31;35111;-73
2022/10/16 11:41:54;;;;;;;1.55;1.00;;;;;;;27.72;31.54;100049.94;4488397;31;31484;-74
2022/10/16 11:44:53;;;;;;;0.82;0.82;;;;;;;25.87;33.74;100057.72;4501378;31;34622;-73
2022/10/16 11:47:47;;;;;;;1.45;1.10;;;;;;;25.73;36.28;100047.91;4502348;31;36008;-73
2022/10/16 11:50:49;;;;;;;1.15;1.05;;;;;;;26.13;34.99;100055.22;4502383;31;35279;-73
2022/10/16 11:53:34;;;;;;;0.45;0.45;;;;;;;25.41;36.35;100057.03;4502501;31;33516;-73
2022/10/16 11:56:04;;;;;;;0.75;0.65;;;;;;;24.82;36.80;100048.97;4501331;31;34938;-73
2022/10/16 11:58:49;;;;;;;0.77;0.77;;;;;;;24.49;36.80;100053.44;4499524;31;34917;-73
2022/10/16 12:01:20;;;;;;;0.10;0.10;;;;;;;23.91;38.38;100049.59;4485369;32;34242;-72